Marquette Legends — WDF9484 — position and weather

sailwx.info

Track history (hours):
 
Tides and Currents Weather Stations Pressure Air Temp Water Temp Dewpoint Dewpoint Depression Visibility Wind Speed Wind Dir Waves Ship Positions

Marquette Legends

Owner: Marquette Transportation Co. LLC, Paducah, KY. More information available from US FCC via Universal Licensing System and Coast Guard Vessel Documentation Center.

Last reported at 2018-Apr-17 05:52 UTC. Time now 2018-Apr-23 13:34 UTC.
Position N 32°44' W 091°04'.

Length 57 m; draft 3.2 m.

Type: Towing. MMSI: 367505630.

Date/timePositionNaut miles runAvg speedWind from/ knotsBaromVisibWave heightAir tempDewpointWater temp
2018-Apr-17 05:52N 32°44' W 091°04'1 3.9
2018-Apr-17 05:30N 32°42' W 091°04'2 4.3
2018-Apr-17 05:00N 32°41' W 091°06'2 4.1
2018-Apr-17 04:29N 32°39' W 091°07'3 4.8
2018-Apr-17 03:56N 32°37' W 091°09'2 4.8
2018-Apr-17 03:31N 32°35' W 091°07'2 4.5
2018-Apr-17 03:00N 32°33' W 091°07'3 4.9
2018-Apr-17 02:20N 32°30' W 091°07'2 4.5
2018-Apr-17 01:59N 32°28' W 091°06'2 4.5
2018-Apr-17 01:30N 32°27' W 091°04'3 5.3
2018-Apr-17 01:00N 32°26' W 091°01'2 4.4
2018-Apr-17 00:30N 32°24' W 090°60'2 4.6
2018-Apr-17 00:00N 32°22' W 091°00'2 4.7
2018-Apr-16 23:30N 32°21' W 090°58'2 4.6
2018-Apr-16 23:00N 32°20' W 090°55'1 2.9
2018-Apr-16 22:30N 32°19' W 090°55'1 3.0
2018-Apr-16 22:01N 32°18' W 090°56'0 0.2
2018-Apr-16 21:31N 32°18' W 090°56'1 2.9
2018-Apr-16 21:00N 32°17' W 090°57'2 4.5
2018-Apr-16 20:30N 32°15' W 090°58'2 4.9
2018-Apr-16 20:00N 32°12' W 090°59'2 4.2
2018-Apr-16 19:30N 32°10' W 090°60'2 4.8
2018-Apr-16 19:00N 32°08' W 091°00'2 3.5
2018-Apr-16 18:31N 32°07' W 091°02'3 4.8
2018-Apr-16 17:57N 32°08' W 091°05'5 4.0
2018-Apr-16 16:40N 32°03' W 091°04'1 3.9
2018-Apr-16 16:30N 32°02' W 091°04'  
2018-Apr-09 18:40N 31°60' W 091°05'211.9
2018-Apr-09 18:30N 32°02' W 091°04'5 9.7
2018-Apr-09 18:00N 32°06' W 091°06'4 7.4
2018-Apr-09 17:30N 32°07' W 091°02'611.2
2018-Apr-09 17:00N 32°13' W 090°59'510.7
2018-Apr-09 16:31N 32°17' W 090°56'4 7.3
2018-Apr-09 16:01N 32°21' W 090°56'4 8.0
2018-Apr-09 15:31N 32°24' W 090°60'510.6
2018-Apr-09 15:01N 32°27' W 091°05'510.6
2018-Apr-09 14:31N 32°32' W 091°06'510.8
2018-Apr-09 14:01N 32°37' W 091°09'810.1
2018-Apr-09 13:14N 32°43' W 091°03'  
Track history (hours):
 
Tides and Currents Weather Stations Pressure Air Temp Water Temp Dewpoint Dewpoint Depression Visibility Wind Speed Wind Dir Waves Ship Positions

Marquette Legends

Owner: Marquette Transportation Co. LLC, Paducah, KY. More information available from US FCC via Universal Licensing System and Coast Guard Vessel Documentation Center.

Last reported at 2018-Apr-17 05:52 UTC. Time now 2018-Apr-23 13:34 UTC.
Position N 32°44' W 091°04'.

Length 57 m; draft 3.2 m.

Type: Towing. MMSI: 367505630.

Date/timePositionNaut miles runAvg speedWind from/ knotsBaromVisibWave heightAir tempDewpointWater temp
2018-Apr-17 05:52N 32°44' W 091°04'1 3.9
2018-Apr-17 05:30N 32°42' W 091°04'2 4.3
2018-Apr-17 05:00N 32°41' W 091°06'2 4.1
2018-Apr-17 04:29N 32°39' W 091°07'3 4.8
2018-Apr-17 03:56N 32°37' W 091°09'2 4.8
2018-Apr-17 03:31N 32°35' W 091°07'2 4.5
2018-Apr-17 03:00N 32°33' W 091°07'3 4.9
2018-Apr-17 02:20N 32°30' W 091°07'2 4.5
2018-Apr-17 01:59N 32°28' W 091°06'2 4.5
2018-Apr-17 01:30N 32°27' W 091°04'3 5.3
2018-Apr-17 01:00N 32°26' W 091°01'2 4.4
2018-Apr-17 00:30N 32°24' W 090°60'2 4.6
2018-Apr-17 00:00N 32°22' W 091°00'2 4.7
2018-Apr-16 23:30N 32°21' W 090°58'2 4.6
2018-Apr-16 23:00N 32°20' W 090°55'1 2.9
2018-Apr-16 22:30N 32°19' W 090°55'1 3.0
2018-Apr-16 22:01N 32°18' W 090°56'0 0.2
2018-Apr-16 21:31N 32°18' W 090°56'1 2.9
2018-Apr-16 21:00N 32°17' W 090°57'2 4.5
2018-Apr-16 20:30N 32°15' W 090°58'2 4.9
2018-Apr-16 20:00N 32°12' W 090°59'2 4.2
2018-Apr-16 19:30N 32°10' W 090°60'2 4.8
2018-Apr-16 19:00N 32°08' W 091°00'2 3.5
2018-Apr-16 18:31N 32°07' W 091°02'3 4.8
2018-Apr-16 17:57N 32°08' W 091°05'5 4.0
2018-Apr-16 16:40N 32°03' W 091°04'1 3.9
2018-Apr-16 16:30N 32°02' W 091°04'  
2018-Apr-09 18:40N 31°60' W 091°05'211.9
2018-Apr-09 18:30N 32°02' W 091°04'5 9.7
2018-Apr-09 18:00N 32°06' W 091°06'4 7.4
2018-Apr-09 17:30N 32°07' W 091°02'611.2
2018-Apr-09 17:00N 32°13' W 090°59'510.7
2018-Apr-09 16:31N 32°17' W 090°56'4 7.3
2018-Apr-09 16:01N 32°21' W 090°56'4 8.0
2018-Apr-09 15:31N 32°24' W 090°60'510.6
2018-Apr-09 15:01N 32°27' W 091°05'510.6
2018-Apr-09 14:31N 32°32' W 091°06'510.8
2018-Apr-09 14:01N 32°37' W 091°09'810.1
2018-Apr-09 13:14N 32°43' W 091°03'  

Dump ship's entire track history